Latest Weather Observations for Port Macquarie Airport

IDN60801

Issued at 7:34 am EDT Wednesday 28 January 2015 (issued every 30 minutes, with the page automatically refreshed every 10 minutes)

About weather observations | Map of weather stations | Latest weather observations for NSW | Other Formats
Station Details ID: 060139 Name: PORT MACQUARIE AIRPORT AWS Lat: -31.43 Lon: 152.87 Height: 4.2 m
Data from the previous 72 hours. | See also: Recent months at Port Macquarie Airport
Date/Time
EDT
Temp
°C
App
Temp
°C
Dew
Point
Rel
Hum
%
Delta-T
°C
Wind Press
QNH
hPa
Press
MSL
hPa
Rain
since 9 am
mm
Dir
 
Spd
km/h
Gust
km/h
Spd
kts
Gust
kts
28/07:30am 18.6 19.2 17.8 95 0.5 W 11 15 6 8 1009.1 1009.1 7.8
28/07:00am 18.5 19.1 17.7 95 0.5 W 11 17 6 9 1008.8 1008.8 7.8
28/06:30am 18.4 18.6 17.6 95 0.5 W 13 20 7 11 1008.4 1008.4 7.8
28/06:00am 18.5 19.5 17.7 95 0.5 WSW 9 13 5 7 1008.3 1008.3 6.8
28/05:30am 18.5 19.9 17.8 96 0.4 W 7 11 4 6 1008.3 1008.3 6.8
28/05:00am 18.6 20.0 17.9 96 0.4 W 7 9 4 5 1008.2 1008.2 6.6
28/04:30am 18.5 19.1 17.8 96 0.4 WSW 11 13 6 7 1008.2 1008.2 6.6
28/04:00am 18.6 19.7 17.9 96 0.4 WSW 9 13 5 7 1008.5 1008.5 6.6
28/03:30am 18.5 19.5 17.8 96 0.4 WSW 9 13 5 7 1008.7 1008.7 6.6
28/03:00am 18.4 19.2 17.4 94 0.6 SSW 9 11 5 6 1009.2 1009.2 6.0
28/02:30am 18.4 18.9 17.4 94 0.6 WSW 11 17 6 9 1009.1 1009.1 5.8
28/02:00am 18.4 19.3 17.6 95 0.5 W 9 11 5 6 1009.3 1009.3 5.8
28/01:30am 18.3 17.2 17.7 96 0.4 W 20 30 11 16 1009.6 1009.6 5.8
28/01:00am 18.3 20.5 17.5 95 0.5 E 2 6 1 3 1008.6 1008.6 5.6
28/12:30am 18.2 20.8 17.4 95 0.5 CALM 0 0 0 0 1009.2 1009.2 5.6
28/12:00am 18.2 19.0 17.4 95 0.5 W 9 13 5 7 1010.6 1010.6 5.6
 
Date/Time
EDT
Temp
°C
App
Temp
°C
Dew
Point
Rel
Hum
%
Delta-T
°C
Wind Press
QNH
hPa
Press
MSL
hPa
Rain
since 9 am
mm
Dir
 
Spd
km/h
Gust
km/h
Spd
kts
Gust
kts
27/11:30pm 18.4 19.0 17.6 95 0.5 WNW 11 15 6 8 1011.4 1011.4 5.2
27/11:00pm 18.4 19.0 17.6 95 0.5 WNW 11 15 6 8 1011.8 1011.8 5.0
27/10:30pm 18.8 19.5 18.0 95 0.5 W 11 17 6 9 1011.9 1011.9 4.8
27/10:00pm 18.9 19.7 18.1 95 0.5 W 11 15 6 8 1012.0 1012.0 4.6
27/09:30pm 19.1 19.5 18.1 94 0.6 WSW 13 20 7 11 1012.0 1012.0 4.4
27/09:00pm 19.4 20.0 18.7 96 0.4 WSW 13 15 7 8 1011.7 1011.7 4.2
27/08:30pm 19.3 20.6 18.5 95 0.5 SSW 9 13 5 7 1011.4 1011.4 4.0
27/08:00pm 19.6 20.7 18.8 95 0.5 WSW 11 15 6 8 1011.3 1011.3 3.4
27/07:30pm 19.8 21.3 18.8 94 0.6 SW 9 11 5 6 1010.6 1010.6 3.2
27/07:00pm 19.4 19.8 18.2 93 0.7 S 13 28 7 15 1010.3 1010.3 2.4
27/06:30pm 19.9 20.1 18.6 92 0.8 SSE 15 19 8 10 1010.3 1010.3 1.0
27/06:00pm 20.9 22.2 19.2 90 1.1 SW 11 15 6 8 1009.5 1009.5 0.6
27/05:30pm 21.4 22.0 18.6 84 1.8 ESE 13 24 7 13 1009.2 1009.2 0.6
27/05:00pm 22.8 25.2 19.6 82 2.0 W 6 7 3 4 1009.3 1009.3 0.0
27/04:30pm 23.2 24.7 18.1 73 3.2 SE 7 11 4 6 1009.1 1009.1 0.0
27/04:00pm 22.9 24.2 18.4 76 2.8 ESE 9 13 5 7 1009.3 1009.3 0.0
27/03:30pm 22.5 24.0 18.9 80 2.3 SE 9 17 5 9 1009.5 1009.5 0.0
27/03:00pm 21.8 23.1 19.2 85 1.6 SSE 11 15 6 8 1009.7 1009.7 0.0
27/02:30pm 21.7 22.8 19.6 88 1.3 S 13 19 7 10 1010.0 1010.0 0.0
27/02:00pm 24.1 24.0 18.7 72 3.4 SE 17 24 9 13 1010.0 1010.0 0.0
27/01:30pm 24.4 24.1 18.3 69 3.8 ESE 17 24 9 13 1010.2 1010.2 0.0
27/01:00pm 23.8 24.1 17.8 69 3.7 ESE 13 20 7 11 1010.6 1010.6 0.0
27/12:30pm 23.7 24.1 18.1 71 3.5 ESE 13 17 7 9 1010.8 1010.8 0.0
27/12:00pm 23.7 24.2 18.4 72 3.3 ESE 13 19 7 10 1011.0 1011.0 0.0
27/11:30am 24.3 24.0 18.2 68 3.8 ESE 17 26 9 14 1011.0 1011.0 0.0
27/11:00am 23.7 23.2 17.7 69 3.7 ESE 17 24 9 13 1011.1 1011.1 0.0
27/10:30am 23.9 23.8 17.9 69 3.8 ESE 15 20 8 11 1011.2 1011.2 0.0
27/10:00am 24.4 23.7 18.3 69 3.8 E 19 24 10 13 1011.1 1011.1 0.0
27/09:30am 24.4 24.2 18.6 70 3.7 ESE 17 20 9 11 1010.9 1010.9 0.0
27/09:00am 24.0 24.8 19.1 74 3.1 ESE 13 17 7 9 1010.9 1010.9 165.8
27/08:30am 23.9 24.5 19.4 76 2.9 ESE 15 20 8 11 1010.8 1010.8 165.8
27/08:00am 23.3 24.2 19.2 78 2.6 ESE 13 17 7 9 1010.7 1010.7 165.8
27/07:30am 23.1 23.9 19.1 78 2.5 ESE 13 19 7 10 1010.3 1010.3 165.8
27/07:00am 23.2 24.2 19.4 79 2.4 E 13 19 7 10 1010.0 1010.0 165.8
27/06:30am 23.0 24.2 19.0 78 2.5 ESE 11 15 6 8 1009.9 1009.9 165.8
27/06:00am 23.0 23.8 19.0 78 2.5 E 13 22 7 12 1009.6 1009.6 165.8
27/05:30am 23.0 24.1 19.6 81 2.2 E 13 20 7 11 1009.5 1009.5 165.8
27/05:00am 22.8 23.9 19.6 82 2.0 ESE 13 20 7 11 1009.4 1009.4 165.8
27/04:30am 22.8 24.1 19.4 81 2.2 ESE 11 19 6 10 1009.5 1009.5 165.8
27/04:00am 22.8 24.2 19.6 82 2.0 E 11 19 6 10 1009.8 1009.8 165.6
27/03:30am 22.7 24.3 19.9 84 1.8 ESE 11 20 6 11 1009.9 1009.9 165.6
27/03:00am 22.4 24.0 19.9 86 1.6 SE 11 19 6 10 1009.7 1009.7 165.6
27/02:30am 22.0 23.9 19.7 87 1.5 ESE 9 17 5 9 1010.1 1010.1 165.6
27/02:00am 22.3 24.7 20.0 87 1.5 SE 7 13 4 7 1010.4 1010.4 165.2
27/01:30am 22.4 24.9 20.3 88 1.4 SE 7 13 4 7 1010.4 1010.4 165.0
27/01:00am 22.2 24.2 20.7 91 1.0 SE 11 13 6 7 1010.6 1010.6 165.0
27/12:30am 22.0 24.4 20.8 93 0.8 SE 9 11 5 6 1010.7 1010.7 165.0
27/12:00am 22.1 25.0 21.1 94 0.7 SSE 7 11 4 6 1011.4 1011.4 164.8
 
Date/Time
EDT
Temp
°C
App
Temp
°C
Dew
Point
Rel
Hum
%
Delta-T
°C
Wind Press
QNH
hPa
Press
MSL
hPa
Rain
since 9 am
mm
Dir
 
Spd
km/h
Gust
km/h
Spd
kts
Gust
kts
26/11:30pm 22.3 25.2 21.1 93 0.8 SSW 7 9 4 5 1011.9 1011.9 164.2
26/11:00pm 22.1 24.5 20.9 93 0.8 SE 9 13 5 7 1012.1 1012.1 164.2
26/10:30pm 22.2 23.6 21.0 93 0.8 ESE 15 20 8 11 1012.3 1012.3 163.4
26/10:00pm 22.4 23.5 21.2 93 0.8 ESE 17 20 9 11 1011.9 1011.9 160.8
26/09:54pm 22.4 23.5 21.2 93 0.8 E 17 22 9 12 1011.9 1011.9 160.4
26/09:44pm 22.5 23.6 21.3 93 0.8 ESE 17 28 9 15 1011.7 1011.7 159.4
26/09:30pm 22.6 23.8 21.4 93 0.8 E 17 24 9 13 1011.6 1011.6 158.0
26/09:00pm 22.7 23.2 21.2 91 1.0 E 20 28 11 15 1011.3 1011.3 156.2
26/08:30pm 23.1 23.0 21.5 91 1.1 E 24 35 13 19 1010.8 1010.8 154.8
26/08:22pm 23.4 23.7 21.5 89 1.3 E 22 33 12 18 1010.8 1010.8 154.0
26/08:00pm 23.9 23.1 20.8 83 2.0 ESE 26 35 14 19 1010.2 1010.2 152.6
26/07:30pm 23.7 22.9 20.8 84 1.9 ESE 26 43 14 23 1009.6 1009.6 152.6
26/07:00pm 23.6 23.7 21.1 86 1.6 ESE 22 35 12 19 1009.1 1009.1 152.6
26/06:30pm 23.4 24.2 21.8 91 1.1 ESE 20 28 11 15 1008.9 1008.9 152.6
26/06:12pm 23.3 24.3 22.1 93 0.8 ESE 20 28 11 15 1008.7 1008.7 152.6
26/06:00pm 23.4 24.1 22.2 93 0.8 ESE 22 32 12 17 1009.0 1009.0 152.6
26/05:47pm 23.4 24.6 22.2 93 0.8 SE 19 26 10 14 1008.9 1008.9 151.6
26/05:30pm 23.6 25.7 22.4 93 0.8 ESE 15 22 8 12 1009.0 1009.0 150.6
26/05:12pm 23.2 25.2 22.2 94 0.7 ESE 15 22 8 12 1008.9 1008.9 150.4
26/05:00pm 23.5 26.1 22.7 95 0.5 SSE 13 22 7 12 1009.1 1009.1 149.8
26/04:51pm 23.5 25.8 22.7 95 0.5 SE 15 20 8 11 1009.0 1009.0 149.0
26/04:48pm 23.4 25.6 22.6 95 0.5 ESE 15 22 8 12 1009.0 1009.0 148.4
26/04:33pm 23.1 26.3 22.4 96 0.5 SE 9 20 5 11 1009.1 1009.1 147.8
26/04:30pm 23.0 26.3 22.5 97 0.3 SSE 9 15 5 8 1009.1 1009.1 147.8
26/04:00pm 22.9 25.3 22.2 96 0.5 S 13 26 7 14 1009.4 1009.4 143.6
26/03:30pm 23.2 26.1 22.5 96 0.5 SW 11 20 6 11 1009.3 1009.3 116.8
26/03:00pm 23.3 24.6 22.6 96 0.5 NNE 20 33 11 18 1009.4 1009.4 95.0
26/02:53pm 23.3 25.1 22.6 96 0.5 NE 17 33 9 18 1009.3 1009.3 92.2
26/02:30pm 23.6 27.1 22.9 96 0.5 NNW 9 15 5 8 1009.6 1009.6 73.6
26/02:00pm 24.0 26.7 22.8 93 0.8 SE 13 30 7 16 1009.4 1009.4 33.6
26/01:54pm 24.0 25.8 22.6 92 0.9 SSW 17 30 9 16 1009.3 1009.3 27.4
26/01:53pm 24.0 26.2 22.6 92 0.9 SSW 15 30 8 16 1009.3 - 26.4
26/01:49pm 24.1 27.4 22.5 91 1.1 S 9 30 5 16 1009.1 1009.1 22.0
26/01:38pm 24.4 28.2 22.8 91 1.1 SE 7 13 4 7 1009.4 1009.4 20.2
26/01:30pm 24.4 28.0 23.0 92 0.9 SE 9 19 5 10 1009.4 1009.4 20.2
26/01:16pm 24.4 26.1 22.3 88 1.4 SE 17 28 9 15 1009.6 1009.6 18.6
26/01:00pm 25.5 28.4 23.9 91 1.1 SE 15 24 8 13 1009.6 1009.6 17.6
26/12:30pm 24.5 26.7 23.3 93 0.8 SSE 17 24 9 13 1010.0 1010.0 17.4
26/12:15pm 24.4 26.3 22.8 91 1.1 S 17 26 9 14 1010.2 1010.2 17.4
26/12:00pm 24.8 27.6 23.0 90 1.2 S 13 20 7 11 1010.1 1010.1 17.0
26/11:55am 24.5 27.1 22.6 89 1.3 S 13 20 7 11 1010.2 1010.2 16.4
26/11:47am 25.5 28.6 23.6 89 1.3 S 13 17 7 9 1010.3 1010.3 15.0
26/11:30am 25.3 28.9 23.7 91 1.1 S 11 15 6 8 1010.1 1010.1 15.0
26/11:29am 25.1 28.5 23.3 90 1.2 S 11 15 6 8 1010.1 - 15.0
26/11:12am 24.7 27.9 23.1 91 1.1 SSW 11 15 6 8 1010.0 1010.0 15.0
26/11:11am 25.0 28.1 23.6 92 1.0 S 13 17 7 9 1010.0 - 15.0
26/11:07am 25.0 27.9 23.8 93 0.8 S 15 20 8 11 1010.1 1010.1 15.0
26/11:06am 25.3 28.5 24.3 94 0.7 S 15 20 8 11 1010.1 - 15.0
26/11:00am 24.9 27.5 24.0 95 0.6 SSE 17 24 9 13 1010.3 1010.3 15.0
26/10:34am 24.1 26.0 23.4 96 0.5 SSE 19 28 10 15 1010.3 1010.3 15.0
26/10:30am 24.2 26.0 23.5 96 0.5 S 20 28 11 15 1010.3 1010.3 15.0
26/10:18am 23.9 27.2 23.2 96 0.5 S 11 17 6 9 1010.4 1010.4 14.6
26/10:02am 23.9 27.7 23.4 97 0.3 SSE 9 13 5 7 1010.3 1010.3 13.8
26/10:01am 23.8 27.4 23.1 96 0.5 S 9 11 5 6 1010.3 - 13.8
26/10:00am 23.9 27.6 23.2 96 0.5 S 9 11 5 6 1010.3 1010.3 13.8
26/09:49am 23.5 26.2 22.8 96 0.5 S 13 20 7 11 1009.9 1009.9 13.8
26/09:44am 23.3 25.8 22.5 95 0.5 SSW 13 20 7 11 1010.0 1010.0 13.8
26/09:43am 23.3 25.8 22.5 95 0.5 SSW 13 20 7 11 1010.1 - 13.8
26/09:30am 23.0 24.5 22.0 94 0.7 S 17 24 9 13 1009.8 1009.8 12.4
26/09:19am 24.1 27.0 22.5 91 1.1 WSW 11 32 6 17 1009.6 1009.6 2.8
26/09:18am 24.4 25.8 22.8 91 1.1 SW 20 32 11 17 1009.5 - 1.8
26/09:17am 24.7 29.0 23.3 92 1.0 W 6 28 3 15 1009.5 1009.5 1.0
26/09:13am 25.3 30.5 23.5 90 1.2 NNW 2 9 1 5 1009.3 1009.3 0.6
26/09:00am 25.1 30.3 23.5 91 1.1 ENE 2 7 1 4 1009.3 1009.3 6.2
26/08:34am 25.0 28.6 23.1 89 1.3 E 9 17 5 9 1009.1 1009.1 2.6
26/08:30am 25.2 29.0 23.4 90 1.2 SSE 9 13 5 7 1009.0 1009.0 1.4
26/08:00am 25.2 28.6 22.7 86 1.7 WSW 9 13 5 7 1008.6 1008.6 0.8
26/07:30am 25.3 28.4 22.8 86 1.7 SW 11 15 6 8 1008.5 1008.5 0.8
26/07:00am 25.0 28.4 22.7 87 1.6 SW 9 11 5 6 1008.3 1008.3 0.8
26/06:30am 24.3 26.3 22.2 88 1.4 SW 15 17 8 9 1007.9 1007.9 0.8
26/06:00am 24.1 27.2 22.2 89 1.3 WSW 9 13 5 7 1007.7 1007.7 0.8
26/05:30am 24.0 26.2 21.9 88 1.4 WSW 13 17 7 9 1007.3 1007.3 0.8
26/05:00am 24.1 25.9 21.8 87 1.5 SW 15 20 8 11 1006.8 1006.8 0.8
26/04:30am 23.5 26.7 21.2 87 1.5 SW 6 9 3 5 1006.8 1006.8 0.8
26/04:00am 23.5 26.2 21.4 88 1.4 SW 9 13 5 7 1006.5 1006.5 0.8
26/03:30am 23.0 25.4 21.6 92 0.9 WSW 11 15 6 8 1006.1 1006.1 0.8
26/03:00am 22.7 25.7 21.9 95 0.5 SW 9 11 5 6 1005.6 1005.6 0.8
26/02:30am 22.7 25.7 21.9 95 0.5 SW 9 11 5 6 1005.6 1005.6 0.8
26/02:00am 22.6 25.9 21.8 95 0.5 SSW 7 9 4 5 1005.6 1005.6 0.8
26/01:30am 22.8 26.1 21.8 94 0.7 SSW 7 9 4 5 1005.5 1005.5 0.8
26/01:00am 23.2 27.8 21.8 92 0.9 CALM 0 0 0 0 1005.4 1005.4 0.8
26/12:30am 23.6 28.3 21.9 90 1.1 CALM 0 0 0 0 1005.6 1005.6 0.8
26/12:00am 23.9 27.3 22.0 89 1.3 NNW 7 11 4 6 1005.8 1005.8 0.8
 
Date/Time
EDT
Temp
°C
App
Temp
°C
Dew
Point
Rel
Hum
%
Delta-T
°C
Wind Press
QNH
hPa
Press
MSL
hPa
Rain
since 9 am
mm
Dir
 
Spd
km/h
Gust
km/h
Spd
kts
Gust
kts
25/11:30pm 24.1 27.8 22.5 91 1.1 N 7 9 4 5 1005.9 1005.9 0.8
25/11:00pm 23.6 28.3 21.9 90 1.1 CALM 0 0 0 0 1005.9 1005.9 0.8
25/10:30pm 24.2 29.2 22.5 90 1.1 CALM 0 0 0 0 1005.6 1005.6 0.8
25/10:00pm 24.2 28.8 21.7 86 1.7 CALM 0 0 0 0 1005.5 1005.5 0.8
25/09:30pm 25.1 30.3 22.8 87 1.6 CALM 0 0 0 0 1005.2 1005.2 0.8
25/09:00pm 25.4 30.0 21.7 80 2.5 CALM 0 0 0 0 1004.8 1004.8 0.8
25/08:30pm 27.3 31.0 22.5 75 3.2 N 7 9 4 5 1004.7 1004.7 0.8
25/08:00pm 28.3 31.0 21.3 65 4.7 N 9 11 5 6 1004.4 1004.4 0.8
25/07:30pm 29.1 32.0 21.1 62 5.3 NNE 7 11 4 6 1004.0 1004.0 0.8
25/07:00pm 29.6 31.7 20.2 57 6.2 NE 9 13 5 7 1003.5 1003.5 0.8
25/06:30pm 30.1 32.4 20.6 56 6.3 ENE 9 15 5 8 1003.3 1003.3 0.8
25/06:00pm 30.2 31.8 19.9 54 6.8 E 11 15 6 8 1003.2 1003.2 0.8
25/05:30pm 30.3 32.9 21.9 60 5.7 NE 11 15 6 8 1003.1 1003.1 0.8
25/05:00pm 29.0 31.4 21.5 64 5.0 ENE 11 13 6 7 1002.8 1002.8 0.8
25/04:30pm 28.6 31.3 22.1 68 4.4 ENE 11 13 6 7 1002.8 1002.8 0.4
25/04:00pm 30.0 32.6 22.7 65 5.0 ENE 13 20 7 11 1002.5 1002.5 0.0
25/03:30pm 30.7 33.4 23.4 65 5.0 ENE 15 20 8 11 1002.4 1002.4 0.0
25/03:00pm 30.1 32.3 23.3 67 4.7 ENE 17 22 9 12 1002.4 1002.4 0.0
25/02:30pm 30.1 31.2 22.3 63 5.3 ENE 20 24 11 13 1002.4 1002.4 0.0
25/02:00pm 30.6 32.9 23.5 66 4.9 ENE 17 24 9 13 1002.4 1002.4 0.0
25/01:30pm 31.1 33.8 23.5 64 5.3 E 15 20 8 11 1002.6 1002.6 0.0
25/01:00pm 30.4 33.2 24.3 70 4.3 ENE 17 20 9 11 1002.7 1002.7 0.0
25/12:30pm 29.6 31.3 23.1 68 4.5 ENE 19 24 10 13 1002.9 1002.9 0.0
25/12:00pm 30.2 32.1 23.4 67 4.7 ENE 19 22 10 12 1003.2 1003.2 0.0
25/11:30am 31.0 34.0 22.6 61 5.7 ENE 11 19 6 10 1003.4 1003.4 0.0
25/11:00am 30.0 33.2 22.4 63 5.2 NNW 9 13 5 7 1003.5 1003.5 0.0
25/10:30am 29.3 33.3 22.8 68 4.4 NNE 6 11 3 6 1003.5 1003.5 0.0
25/10:00am 28.1 32.1 22.8 73 3.6 NW 6 11 3 6 1003.5 1003.5 0.0
25/09:30am 27.5 31.2 22.2 73 3.6 NNW 6 13 3 7 1003.6 1003.6 0.0
25/09:00am 26.6 30.1 22.2 77 3.0 NNE 7 11 4 6 1003.8 1003.8 0.0
25/08:30am 25.7 29.5 21.6 78 2.7 N 4 11 2 6 1003.9 1003.9 0.0
25/08:00am 24.6 29.0 21.3 82 2.2 CALM 0 0 0 0 1003.9 1003.9 0.0

Other Formats:

Comma delimited format used in spreadsheet applications
http://www.bom.gov.au/fwo/IDN60801/IDN60801.94786.axf

JavaScript Object Notation format (JSON) in row-major order
http://www.bom.gov.au/fwo/IDN60801/IDN60801.94786.json